createdAt,value
2022-08-17T00:00:34.388Z,99.90
2022-08-17T00:03:17.322Z,99.90
2022-08-17T00:05:49.124Z,99.90
2022-08-17T00:08:21.507Z,99.90
2022-08-17T00:10:52.814Z,99.90
2022-08-17T00:13:25.825Z,99.90
2022-08-17T00:15:59.789Z,99.90
2022-08-17T00:19:02.129Z,99.90
2022-08-17T00:21:25.347Z,99.90
2022-08-17T00:23:55.085Z,99.90
2022-08-17T00:26:44.228Z,99.90
2022-08-17T00:29:19.866Z,99.90
2022-08-17T00:31:48.833Z,99.90
2022-08-17T00:34:17.971Z,99.90
2022-08-17T00:36:46.752Z,99.90
2022-08-17T00:39:15.372Z,99.90
2022-08-17T00:41:45.132Z,99.90
2022-08-17T00:44:15.615Z,99.90
2022-08-17T00:46:45.013Z,99.90
2022-08-17T00:49:15.171Z,99.90
2022-08-17T00:51:47.779Z,99.90
2022-08-17T00:54:21.415Z,99.90
2022-08-17T00:57:01.950Z,99.90
2022-08-17T00:59:38.520Z,99.90
2022-08-17T01:02:09.731Z,99.90
2022-08-17T01:04:38.542Z,99.90
2022-08-17T01:07:08.553Z,99.90
2022-08-17T01:09:37.261Z,99.90
2022-08-17T01:12:10.383Z,99.90
2022-08-17T01:14:39.879Z,99.90
2022-08-17T01:17:09.347Z,99.90
2022-08-17T01:19:41.244Z,99.90
2022-08-17T01:22:18.893Z,99.90
2022-08-17T01:24:51.285Z,99.90
2022-08-17T01:27:21.008Z,99.90
2022-08-17T01:29:52.101Z,99.90
2022-08-17T01:32:21.117Z,99.90
2022-08-17T01:34:50.898Z,99.90
2022-08-17T01:37:22.469Z,99.90
2022-08-17T01:39:55.136Z,99.90
2022-08-17T01:42:30.726Z,99.90
2022-08-17T01:45:05.743Z,99.90
2022-08-17T01:47:35.997Z,99.90
2022-08-17T01:50:10.401Z,99.90
2022-08-17T01:52:42.416Z,99.90
2022-08-17T01:55:12.945Z,99.90
2022-08-17T01:57:41.209Z,99.90
2022-08-17T02:00:12.031Z,99.90
2022-08-17T02:02:40.501Z,99.90
2022-08-17T02:05:10.145Z,99.90
2022-08-17T02:07:59.799Z,99.90
2022-08-17T02:10:34.041Z,99.90
2022-08-17T02:13:05.269Z,99.90
2022-08-17T02:15:35.130Z,99.90
2022-08-17T02:18:05.773Z,99.90
2022-08-17T02:20:41.965Z,99.90
2022-08-17T02:23:13.646Z,99.90
2022-08-17T02:25:48.659Z,99.90
2022-08-17T02:28:19.553Z,99.90
2022-08-17T02:30:59.177Z,99.90
2022-08-17T02:33:42.502Z,99.90
2022-08-17T02:36:13.914Z,99.90
2022-08-17T02:38:43.168Z,99.90
2022-08-17T02:41:13.291Z,99.90
2022-08-17T02:43:42.483Z,99.90
2022-08-17T02:46:12.670Z,99.90
2022-08-17T02:48:42.352Z,99.90
2022-08-17T02:51:11.668Z,99.90
2022-08-17T02:53:42.569Z,99.90
2022-08-17T02:56:47.445Z,99.90
2022-08-17T02:59:46.773Z,99.90
2022-08-17T03:02:17.421Z,99.90
2022-08-17T03:04:49.150Z,99.90
2022-08-17T03:07:20.230Z,99.90
2022-08-17T03:09:48.443Z,99.90
2022-08-17T03:12:18.020Z,99.90
2022-08-17T03:14:46.799Z,99.90
2022-08-17T03:17:17.420Z,99.90
2022-08-17T03:19:46.343Z,99.90
2022-08-17T03:22:37.176Z,99.90
2022-08-17T03:25:05.455Z,99.90
2022-08-17T03:27:42.099Z,99.90
2022-08-17T03:30:15.820Z,99.90
2022-08-17T03:32:46.799Z,99.90
2022-08-17T03:35:18.829Z,99.90
2022-08-17T03:38:00.383Z,99.90
2022-08-17T03:40:34.639Z,99.90
2022-08-17T03:43:20.994Z,99.90
2022-08-17T03:46:27.198Z,99.90
2022-08-17T03:49:12.927Z,99.90
2022-08-17T03:51:58.961Z,99.90
2022-08-17T03:54:41.234Z,99.90
2022-08-17T03:57:11.839Z,99.90
2022-08-17T03:59:42.917Z,99.90
2022-08-17T04:02:20.159Z,99.90
2022-08-17T04:04:51.005Z,99.90
2022-08-17T04:07:21.209Z,99.90
2022-08-17T04:09:49.745Z,99.90
2022-08-17T04:12:19.620Z,99.90
2022-08-17T04:14:53.721Z,99.90
2022-08-17T04:17:25.619Z,99.90
2022-08-17T04:19:55.054Z,99.90
2022-08-17T04:22:32.401Z,99.90
2022-08-17T04:25:06.355Z,99.90
2022-08-17T04:27:34.945Z,99.90
2022-08-17T04:30:08.026Z,99.90
2022-08-17T04:33:04.668Z,99.90
2022-08-17T04:35:38.608Z,99.90
2022-08-17T04:38:08.693Z,99.90
2022-08-17T04:41:06.343Z,99.90
2022-08-17T04:43:37.252Z,99.90
2022-08-17T04:46:10.788Z,99.90
2022-08-17T04:48:42.645Z,99.90
2022-08-17T04:51:15.344Z,99.90
2022-08-17T04:53:49.057Z,99.90
2022-08-17T04:56:25.873Z,99.90
2022-08-17T04:58:56.983Z,99.90
2022-08-17T05:01:29.191Z,99.90
2022-08-17T05:04:00.153Z,99.90
2022-08-17T05:06:49.628Z,99.90
2022-08-17T05:09:19.474Z,99.90
2022-08-17T05:11:49.012Z,99.90
2022-08-17T05:14:17.242Z,99.90
2022-08-17T05:16:51.644Z,99.90
2022-08-17T05:19:20.021Z,99.90
2022-08-17T05:21:48.230Z,99.90
2022-08-17T05:24:42.557Z,99.90
2022-08-17T05:27:09.213Z,99.90
2022-08-17T05:29:39.388Z,99.90
2022-08-17T05:32:38.952Z,99.90
2022-08-17T05:35:02.283Z,99.90
2022-08-17T05:37:31.042Z,99.90
2022-08-17T05:39:59.770Z,99.90
2022-08-17T05:42:28.455Z,99.90
2022-08-17T05:44:58.925Z,99.90
2022-08-17T05:47:29.025Z,99.90
2022-08-17T05:49:58.537Z,99.90
2022-08-17T05:52:34.592Z,99.90
2022-08-17T05:55:12.883Z,99.90
2022-08-17T05:57:56.637Z,99.90
2022-08-17T06:00:37.185Z,99.90
2022-08-17T06:03:30.006Z,99.90
2022-08-17T06:06:10.280Z,99.90
2022-08-17T06:08:51.567Z,99.90
2022-08-17T06:11:29.954Z,99.90
2022-08-17T06:14:11.819Z,99.90
2022-08-17T06:16:44.377Z,99.90
2022-08-17T06:19:19.825Z,99.90
2022-08-17T06:21:52.218Z,99.90
2022-08-17T06:24:28.499Z,99.90
2022-08-17T06:27:02.573Z,99.90
2022-08-17T06:29:39.939Z,99.90
2022-08-17T06:32:12.877Z,99.90
2022-08-17T06:34:44.892Z,99.90
2022-08-17T06:37:27.794Z,99.90
2022-08-17T06:40:03.759Z,99.90
2022-08-17T06:43:02.269Z,99.90
2022-08-17T06:45:39.014Z,99.90
2022-08-17T06:48:14.120Z,99.90
2022-08-17T06:50:53.435Z,99.90
2022-08-17T06:53:27.393Z,99.90
2022-08-17T06:56:02.819Z,99.90
2022-08-17T06:58:33.310Z,99.90
2022-08-17T07:01:07.232Z,99.90
2022-08-17T07:03:40.743Z,99.90
2022-08-17T07:06:16.396Z,99.90
2022-08-17T07:08:54.880Z,99.90
2022-08-17T07:11:29.004Z,99.90
2022-08-17T07:14:15.206Z,99.90
2022-08-17T07:16:47.852Z,99.90
2022-08-17T07:19:17.845Z,99.90
2022-08-17T07:21:55.054Z,99.90
2022-08-17T07:24:37.332Z,99.90
2022-08-17T07:27:14.100Z,99.90
2022-08-17T07:29:46.825Z,99.90
2022-08-17T07:32:19.229Z,99.90
2022-08-17T07:35:05.113Z,99.90
2022-08-17T07:37:36.825Z,99.90
2022-08-17T07:40:18.079Z,99.90
2022-08-17T07:43:11.497Z,99.90
2022-08-17T07:46:30.226Z,99.90
2022-08-17T07:49:19.579Z,99.90
2022-08-17T07:52:24.054Z,99.90
2022-08-17T07:54:50.444Z,99.90
2022-08-17T07:57:32.474Z,99.90
2022-08-17T08:00:31.691Z,99.90
2022-08-17T08:03:16.043Z,99.90
2022-08-17T08:05:57.582Z,99.90
2022-08-17T08:08:34.287Z,99.90
2022-08-17T08:11:12.037Z,99.90
2022-08-17T08:13:42.776Z,99.90
2022-08-17T08:16:22.672Z,99.90
2022-08-17T08:18:56.805Z,99.90
2022-08-17T08:21:34.499Z,99.90
2022-08-17T08:24:14.449Z,99.90
2022-08-17T08:26:53.957Z,99.90
2022-08-17T08:29:32.819Z,99.90
2022-08-17T08:32:08.740Z,99.90
2022-08-17T08:35:02.696Z,99.90
2022-08-17T08:37:43.558Z,99.90
2022-08-17T08:40:34.562Z,99.90
2022-08-17T08:43:16.861Z,99.90
2022-08-17T08:45:56.682Z,99.90
2022-08-17T08:48:55.840Z,99.90
2022-08-17T08:51:39.143Z,99.90
2022-08-17T08:54:16.115Z,99.90
2022-08-17T08:57:22.143Z,99.90
2022-08-17T08:59:59.196Z,99.90
2022-08-17T09:02:58.047Z,99.90
2022-08-17T09:05:40.089Z,99.90
2022-08-17T09:08:19.840Z,99.90
2022-08-17T09:10:56.819Z,99.90
2022-08-17T09:13:38.673Z,99.90
2022-08-17T09:16:16.385Z,99.90
2022-08-17T09:19:00.093Z,99.90
2022-08-17T09:21:47.946Z,99.90
2022-08-17T09:24:24.984Z,99.90
2022-08-17T09:27:00.216Z,99.90
2022-08-17T09:29:35.488Z,99.90
2022-08-17T09:32:14.146Z,99.90
2022-08-17T09:34:51.294Z,99.90
2022-08-17T09:37:26.864Z,99.90
2022-08-17T09:40:07.895Z,99.90
2022-08-17T09:42:46.634Z,99.90
2022-08-17T09:45:28.907Z,99.90
2022-08-17T09:48:03.500Z,99.90
2022-08-17T09:51:03.985Z,99.90
2022-08-17T09:53:31.781Z,99.90
2022-08-17T09:56:16.457Z,99.90
2022-08-17T09:59:01.894Z,99.90
2022-08-17T10:01:36.922Z,99.90
2022-08-17T10:04:32.669Z,99.90
2022-08-17T10:07:08.559Z,99.90
2022-08-17T10:09:49.879Z,99.90
2022-08-17T10:12:30.449Z,99.90
2022-08-17T10:15:17.413Z,99.90
2022-08-17T10:18:03.767Z,99.90
2022-08-17T10:20:40.618Z,99.90
2022-08-17T10:23:31.691Z,99.90
2022-08-17T10:26:16.686Z,99.90
2022-08-17T10:28:50.344Z,99.90
2022-08-17T10:31:39.745Z,99.90
2022-08-17T10:34:43.322Z,99.90
2022-08-17T10:37:33.527Z,99.90
2022-08-17T10:40:19.895Z,98.30
2022-08-17T10:42:52.752Z,96.30
2022-08-17T10:45:27.083Z,96.80
2022-08-17T10:48:05.687Z,97.70
2022-08-17T10:50:49.518Z,95.80
2022-08-17T10:53:50.532Z,96.30
2022-08-17T10:56:42.279Z,95.50
2022-08-17T10:59:11.220Z,94.10
2022-08-17T11:02:05.459Z,95.30
2022-08-17T11:04:49.646Z,94.90
2022-08-17T11:07:30.818Z,94.30
2022-08-17T11:10:24.777Z,94.10
2022-08-17T11:13:03.134Z,94.30
2022-08-17T11:15:51.549Z,94.30
2022-08-17T11:18:36.559Z,94.40
2022-08-17T11:21:35.891Z,94.50
2022-08-17T11:24:20.192Z,94.20
2022-08-17T11:27:07.701Z,94.20
2022-08-17T11:29:59.480Z,94.50
2022-08-17T11:32:38.403Z,95.40
2022-08-17T11:35:34.894Z,95.10
2022-08-17T11:38:16.844Z,94.60
2022-08-17T11:41:14.535Z,94.80
2022-08-17T11:44:18.551Z,95.20
2022-08-17T11:47:26.713Z,95.00
2022-08-17T11:50:36.618Z,94.60
2022-08-17T11:53:05.128Z,94.80
2022-08-17T11:56:06.095Z,95.60
2022-08-17T11:58:41.696Z,95.20
2022-08-17T12:01:13.613Z,96.00
2022-08-17T12:03:57.765Z,95.70
2022-08-17T12:06:42.863Z,95.80
2022-08-17T12:09:18.385Z,96.00
2022-08-17T12:11:55.159Z,96.40
2022-08-17T12:15:08.892Z,96.70
2022-08-17T12:17:40.239Z,96.50
2022-08-17T12:20:16.356Z,97.60
2022-08-17T12:22:54.941Z,98.10
2022-08-17T12:25:32.936Z,97.30
2022-08-17T12:28:06.412Z,97.80
2022-08-17T12:30:37.433Z,97.90
2022-08-17T12:33:25.477Z,97.60
2022-08-17T12:36:03.935Z,97.60
2022-08-17T12:38:34.897Z,98.60
2022-08-17T12:41:26.991Z,98.60
2022-08-17T12:44:02.416Z,98.80
2022-08-17T12:46:45.607Z,98.40
2022-08-17T12:49:18.115Z,99.40
2022-08-17T12:51:48.921Z,99.90
2022-08-17T12:54:40.465Z,99.90
2022-08-17T12:57:16.364Z,99.90
2022-08-17T12:59:47.782Z,99.90
2022-08-17T13:02:44.772Z,99.90
2022-08-17T13:05:25.556Z,99.90
2022-08-17T13:07:57.189Z,99.90
2022-08-17T13:10:33.029Z,99.90
2022-08-17T13:13:06.016Z,99.90
2022-08-17T13:15:44.658Z,99.90
2022-08-17T13:18:36.511Z,99.90
2022-08-17T13:21:05.137Z,99.90
2022-08-17T13:23:34.855Z,99.90
2022-08-17T13:26:09.096Z,99.90
2022-08-17T13:28:38.007Z,99.90
2022-08-17T13:31:25.463Z,99.90
2022-08-17T13:34:15.345Z,99.90
2022-08-17T13:36:45.292Z,99.90
2022-08-17T13:39:21.323Z,99.90
2022-08-17T13:41:51.665Z,99.90
2022-08-17T13:44:34.545Z,99.90
2022-08-17T13:47:07.108Z,99.90
2022-08-17T13:49:48.648Z,99.90
2022-08-17T13:52:37.988Z,99.90
2022-08-17T13:55:17.026Z,99.90
2022-08-17T13:57:47.712Z,99.90
2022-08-17T14:00:21.971Z,99.90
2022-08-17T14:02:51.342Z,99.90
2022-08-17T14:05:19.942Z,99.90
2022-08-17T14:07:48.448Z,99.90
2022-08-17T14:10:20.135Z,99.90
2022-08-17T14:12:50.230Z,99.90
2022-08-17T14:15:23.404Z,99.90
2022-08-17T14:18:12.099Z,99.90
2022-08-17T14:20:41.091Z,99.90
2022-08-17T14:23:09.420Z,99.90
2022-08-17T14:25:40.173Z,99.90
2022-08-17T14:28:08.485Z,99.90
2022-08-17T14:30:37.858Z,99.90
2022-08-17T14:33:06.223Z,99.90
2022-08-17T14:35:34.813Z,99.90
2022-08-17T14:38:03.209Z,98.90
2022-08-17T14:40:31.827Z,99.40
2022-08-17T14:43:02.289Z,99.90
2022-08-17T14:45:33.208Z,99.90
2022-08-17T14:48:05.547Z,99.90
2022-08-17T14:50:35.426Z,99.90
2022-08-17T14:53:05.755Z,99.90
2022-08-17T14:55:34.611Z,99.90
2022-08-17T14:58:05.132Z,99.90
2022-08-17T15:00:34.087Z,99.90
2022-08-17T15:03:04.343Z,99.90
2022-08-17T15:05:35.378Z,99.90
2022-08-17T15:08:05.889Z,99.90
2022-08-17T15:10:34.666Z,99.90
2022-08-17T15:13:04.973Z,99.90
2022-08-17T15:15:34.140Z,99.90
2022-08-17T15:18:03.295Z,99.90
2022-08-17T15:20:32.377Z,99.90
2022-08-17T15:23:02.194Z,99.90
2022-08-17T15:25:32.943Z,99.90
2022-08-17T15:28:03.530Z,99.90
2022-08-17T15:30:33.056Z,99.90
2022-08-17T15:33:02.807Z,99.90
2022-08-17T15:35:33.589Z,99.90
2022-08-17T15:38:11.171Z,99.90
2022-08-17T15:40:42.966Z,99.90
2022-08-17T15:43:16.193Z,99.90
2022-08-17T15:45:45.973Z,99.90
2022-08-17T15:48:40.715Z,99.90
2022-08-17T15:51:11.386Z,99.90
2022-08-17T15:53:40.984Z,99.90
2022-08-17T15:56:09.838Z,99.90
2022-08-17T15:58:40.125Z,99.90
2022-08-17T16:01:16.721Z,99.90
2022-08-17T16:04:04.206Z,99.90
2022-08-17T16:06:35.634Z,99.90
2022-08-17T16:09:04.295Z,99.90
2022-08-17T16:11:32.544Z,99.90
2022-08-17T16:14:02.391Z,99.90
2022-08-17T16:16:31.302Z,99.90
2022-08-17T16:18:59.882Z,99.90
2022-08-17T16:21:38.221Z,99.90
2022-08-17T16:24:12.686Z,99.90
2022-08-17T16:26:42.993Z,99.90
2022-08-17T16:29:12.653Z,99.90
2022-08-17T16:31:41.901Z,99.90
2022-08-17T16:34:17.971Z,99.90
2022-08-17T16:36:54.722Z,99.90
2022-08-17T16:39:26.806Z,99.90
2022-08-17T16:41:56.109Z,99.90
2022-08-17T16:44:28.978Z,99.90
2022-08-17T16:46:57.728Z,99.90
2022-08-17T16:49:37.020Z,99.90
2022-08-17T16:52:09.863Z,99.90
2022-08-17T16:54:40.626Z,99.90
2022-08-17T16:57:09.240Z,99.90
2022-08-17T16:59:43.641Z,99.90
2022-08-17T17:02:15.748Z,99.90
2022-08-17T17:04:53.171Z,99.90
2022-08-17T17:07:44.945Z,99.90
2022-08-17T17:10:18.217Z,99.90
2022-08-17T17:13:02.071Z,99.90
2022-08-17T17:15:51.881Z,99.90
2022-08-17T17:18:24.243Z,99.90
2022-08-17T17:20:57.085Z,99.90
2022-08-17T17:23:36.036Z,99.90
2022-08-17T17:26:15.405Z,99.90
2022-08-17T17:29:04.923Z,99.90
2022-08-17T17:31:47.423Z,99.90
2022-08-17T17:34:18.457Z,99.90
2022-08-17T17:36:51.035Z,99.90
2022-08-17T17:39:22.305Z,99.90
2022-08-17T17:41:59.159Z,99.90
2022-08-17T17:44:34.400Z,99.90
2022-08-17T17:47:05.413Z,99.90
2022-08-17T17:49:37.071Z,99.90
2022-08-17T17:52:18.420Z,99.90
2022-08-17T17:54:58.682Z,99.90
2022-08-17T17:57:38.951Z,99.90
2022-08-17T18:00:13.604Z,99.90
2022-08-17T18:02:56.581Z,99.90
2022-08-17T18:05:40.438Z,99.90
2022-08-17T18:08:19.860Z,99.90
2022-08-17T18:11:07.414Z,99.90
2022-08-17T18:13:46.261Z,99.90
2022-08-17T18:16:16.288Z,99.90
2022-08-17T18:18:50.008Z,99.90
2022-08-17T18:21:23.610Z,99.90
2022-08-17T18:23:55.700Z,99.90
2022-08-17T18:26:40.129Z,99.90
2022-08-17T18:29:31.502Z,99.90
2022-08-17T18:32:33.491Z,99.90
2022-08-17T18:35:27.964Z,99.90
2022-08-17T18:37:59.484Z,99.90
2022-08-17T18:40:37.557Z,99.90
2022-08-17T18:43:13.028Z,99.90
2022-08-17T18:45:46.698Z,99.90
2022-08-17T18:48:22.996Z,99.90
2022-08-17T18:50:54.671Z,99.90
2022-08-17T18:53:30.351Z,99.90
2022-08-17T18:56:30.989Z,99.90
2022-08-17T18:59:12.053Z,99.90
2022-08-17T19:01:59.308Z,99.90
2022-08-17T19:04:37.063Z,99.90
2022-08-17T19:07:26.815Z,99.90
2022-08-17T19:09:59.498Z,99.90
2022-08-17T19:12:33.260Z,99.90
2022-08-17T19:15:03.563Z,99.90
2022-08-17T19:17:40.928Z,99.90
2022-08-17T19:20:16.790Z,99.90
2022-08-17T19:22:55.293Z,99.90
2022-08-17T19:25:28.714Z,99.90
2022-08-17T19:28:04.295Z,99.90
2022-08-17T19:30:51.160Z,99.90
2022-08-17T19:33:19.988Z,99.90
2022-08-17T19:35:57.397Z,99.90
2022-08-17T19:38:40.758Z,99.90
2022-08-17T19:41:16.351Z,99.90
2022-08-17T19:43:57.945Z,99.90
2022-08-17T19:46:35.734Z,99.90
2022-08-17T19:49:11.557Z,99.90
2022-08-17T19:51:47.692Z,99.90
2022-08-17T19:54:26.650Z,99.90
2022-08-17T19:57:02.922Z,99.90
2022-08-17T19:59:48.986Z,99.90
2022-08-17T20:02:29.786Z,99.90
2022-08-17T20:05:02.095Z,99.90
2022-08-17T20:07:43.783Z,99.90
2022-08-17T20:10:20.522Z,99.90
2022-08-17T20:12:52.701Z,99.90
2022-08-17T20:15:29.677Z,99.90
2022-08-17T20:18:01.366Z,99.90
2022-08-17T20:20:42.807Z,99.90
2022-08-17T20:23:30.239Z,99.90
2022-08-17T20:26:08.287Z,99.90
2022-08-17T20:28:39.164Z,99.90
2022-08-17T20:31:42.268Z,99.90
2022-08-17T20:34:37.499Z,99.90
2022-08-17T20:37:36.066Z,99.90
2022-08-17T20:40:27.006Z,99.90
2022-08-17T20:42:59.508Z,99.90
2022-08-17T20:46:03.783Z,99.90
2022-08-17T20:48:40.277Z,99.90
2022-08-17T20:52:05.859Z,99.90
2022-08-17T20:54:53.001Z,99.90
2022-08-17T20:57:49.401Z,99.90
2022-08-17T21:00:47.615Z,99.90
2022-08-17T21:03:51.838Z,99.90
2022-08-17T21:06:26.152Z,99.90
2022-08-17T21:08:58.913Z,99.90
2022-08-17T21:12:04.492Z,99.90
2022-08-17T21:14:46.104Z,99.90
2022-08-17T21:17:38.359Z,99.90
2022-08-17T21:20:22.750Z,99.90
2022-08-17T21:23:02.082Z,99.90
2022-08-17T21:25:50.684Z,99.90
2022-08-17T21:28:30.017Z,99.90
2022-08-17T21:31:09.196Z,99.90
2022-08-17T21:33:40.403Z,99.90
2022-08-17T21:36:26.913Z,99.90
2022-08-17T21:39:09.719Z,99.90
2022-08-17T21:41:48.386Z,99.90
2022-08-17T21:44:27.787Z,99.90
2022-08-17T21:47:15.994Z,99.90
2022-08-17T21:49:45.886Z,99.90
2022-08-17T21:52:17.629Z,99.90
2022-08-17T21:54:51.673Z,99.90
2022-08-17T21:57:27.511Z,99.90
2022-08-17T22:00:01.226Z,99.90
2022-08-17T22:02:33.655Z,99.90
2022-08-17T22:05:06.876Z,99.90
2022-08-17T22:07:38.893Z,99.90
2022-08-17T22:10:09.686Z,99.90
2022-08-17T22:12:38.324Z,99.90
2022-08-17T22:15:09.735Z,99.90
2022-08-17T22:17:42.186Z,99.90
2022-08-17T22:20:15.913Z,99.90
2022-08-17T22:23:32.778Z,99.90
2022-08-17T22:26:03.971Z,99.90
2022-08-17T22:28:41.340Z,99.90
2022-08-17T22:31:14.584Z,99.90
2022-08-17T22:33:46.989Z,99.90
2022-08-17T22:36:24.667Z,99.90
2022-08-17T22:38:55.673Z,99.90
2022-08-17T22:41:51.365Z,99.90
2022-08-17T22:44:24.980Z,99.90
2022-08-17T22:47:00.117Z,99.90
2022-08-17T22:49:32.611Z,99.90
2022-08-17T22:52:06.196Z,99.90
2022-08-17T22:54:52.876Z,99.90
2022-08-17T22:57:52.293Z,99.90
2022-08-17T23:00:33.544Z,99.90
2022-08-17T23:03:17.772Z,99.90
2022-08-17T23:05:50.105Z,99.90
2022-08-17T23:08:21.287Z,99.90
2022-08-17T23:10:50.368Z,99.90
2022-08-17T23:13:21.270Z,99.90
2022-08-17T23:15:52.142Z,99.90
2022-08-17T23:18:20.813Z,99.90
2022-08-17T23:20:49.300Z,99.90
2022-08-17T23:23:23.427Z,99.90
2022-08-17T23:25:55.880Z,99.90
2022-08-17T23:28:24.215Z,99.90
2022-08-17T23:30:52.485Z,99.90
2022-08-17T23:33:26.877Z,99.90
2022-08-17T23:35:55.232Z,99.90
2022-08-17T23:38:27.052Z,99.90
2022-08-17T23:40:56.169Z,99.90
2022-08-17T23:43:27.568Z,99.90
2022-08-17T23:45:59.462Z,99.90
2022-08-17T23:48:35.774Z,99.90
2022-08-17T23:51:10.608Z,99.90
2022-08-17T23:53:44.161Z,99.90
2022-08-17T23:56:15.688Z,99.90
2022-08-17T23:58:44.763Z,99.90
